Time;durP1;ratioP1;P1;durP2;ratioP2;P2;SDS_P1;SDS_P2;PMS_P1;PMS_P2;Temp;Humidity;BMP_temperature;BMP_pressure;BME280_temperature;BME280_humidity;BME280_pressure;Samples;Min_cycle;Max_cycle;Signal;HPM_P1;HPM_P2
2021/04/09 00:01:45;;;;;;;1.30;1.20;;;;;;;-1.00;100.00;99524.13;10524827;28;20170;-73
2021/04/09 00:07:05;;;;;;;2.00;1.80;;;;;;;-1.09;100.00;99517.91;10525654;28;20280;-74
2021/04/09 00:12:24;;;;;;;2.13;0.90;;;;;;;-1.16;100.00;99520.28;10541053;28;20248;-74
2021/04/09 00:17:43;;;;;;;5.13;2.70;;;;;;;-1.12;100.00;99515.84;10539666;28;20264;-74
2021/04/09 00:23:02;;;;;;;1.70;1.60;;;;;;;-1.20;100.00;99505.81;10525235;28;20198;-74
2021/04/09 00:28:21;;;;;;;1.43;1.33;;;;;;;-1.33;100.00;99514.81;10524588;28;20229;-74
2021/04/09 00:33:40;;;;;;;0.97;0.83;;;;;;;-1.43;100.00;99501.59;10539058;28;20186;-74
2021/04/09 00:38:59;;;;;;;2.50;2.00;;;;;;;-1.44;100.00;99497.28;10540342;28;20177;-74
2021/04/09 00:44:18;;;;;;;1.43;1.03;;;;;;;-1.28;100.00;99490.38;10538643;28;20211;-74
2021/04/09 00:49:38;;;;;;;0.93;0.83;;;;;;;-1.35;100.00;99490.84;10539688;28;20205;-74
2021/04/09 00:54:58;;;;;;;1.40;1.00;;;;;;;-1.54;100.00;99489.50;10524417;28;20181;-74
2021/04/09 01:00:18;;;;;;;7.40;2.97;;;;;;;-1.61;100.00;99481.03;10537995;28;20255;-74
2021/04/09 01:05:38;;;;;;;2.10;2.00;;;;;;;-1.60;100.00;99471.84;10523786;28;20173;-75
2021/04/09 01:10:58;;;;;;;1.97;1.87;;;;;;;-1.66;100.00;99477.69;10538637;28;20731;-75
2021/04/09 01:16:27;;;;;;;1.37;1.27;;;;;;;-1.68;100.00;99477.22;10537995;28;20178;-75
2021/04/09 01:21:56;;;;;;;2.60;2.10;;;;;;;-1.73;100.00;99477.31;10523634;28;20174;-75
2021/04/09 01:27:54;;;;;;;3.10;1.80;;;;;;;-1.74;100.00;99471.16;10538465;28;20676;-76
2021/04/09 01:33:13;;;;;;;1.70;1.60;;;;;;;-1.74;100.00;99454.19;10533477;28;20669;-76
2021/04/09 01:38:36;;;;;;;1.37;1.23;;;;;;;-1.73;100.00;99461.94;10538711;28;20166;-75
2021/04/09 01:44:00;;;;;;;2.07;1.43;;;;;;;-1.84;100.00;99449.84;10523352;28;20178;-75
2021/04/09 01:49:22;;;;;;;1.30;1.00;;;;;;;-1.88;100.00;99448.88;10538261;28;20656;-75
2021/04/09 01:54:43;;;;;;;2.13;1.53;;;;;;;-1.89;100.00;99441.88;10538106;28;20175;-75
2021/04/09 02:00:05;;;;;;;1.20;0.93;;;;;;;-1.89;100.00;99438.38;10536753;28;20186;-76
2021/04/09 02:05:26;;;;;;;0.90;0.80;;;;;;;-1.91;100.00;99432.53;10538116;28;20233;-76
2021/04/09 02:10:48;;;;;;;1.90;1.80;;;;;;;-1.87;100.00;99428.91;10540899;28;20198;-75
2021/04/09 02:16:07;;;;;;;5.53;2.47;;;;;;;-1.86;100.00;99427.81;10544379;28;20178;-75
2021/04/09 02:21:27;;;;;;;4.40;2.17;;;;;;;-2.07;100.00;99418.63;10530231;28;20194;-75
2021/04/09 02:26:46;;;;;;;1.53;1.30;;;;;;;-2.13;100.00;99410.97;10529368;28;20222;-75
2021/04/09 02:32:06;;;;;;;0.90;0.73;;;;;;;-2.07;100.00;99417.84;10542823;28;20202;-75
2021/04/09 02:37:26;;;;;;;2.17;1.27;;;;;;;-2.17;100.00;99408.13;10545006;28;20178;-74
2021/04/09 02:42:48;;;;;;;1.10;1.00;;;;;;;-2.17;100.00;99404.63;10544363;28;20178;-75
2021/04/09 02:48:11;;;;;;;2.13;1.53;;;;;;;-2.22;100.00;99397.47;10543040;28;20194;-75
2021/04/09 02:53:34;;;;;;;0.93;0.83;;;;;;;-2.20;100.00;99392.59;10528752;28;20257;-75
2021/04/09 02:58:55;;;;;;;3.53;1.83;;;;;;;-2.19;100.00;99388.78;10544050;28;20166;-75
2021/04/09 03:04:17;;;;;;;1.60;1.50;;;;;;;-2.02;100.00;99385.38;10528488;28;20178;-75
2021/04/09 03:09:37;;;;;;;1.83;1.13;;;;;;;-2.27;100.00;99383.34;10542991;28;20664;-75
2021/04/09 03:14:57;;;;;;;1.43;1.33;;;;;;;-2.35;100.00;99370.63;10526745;28;20190;-75
2021/04/09 03:20:16;;;;;;;5.10;1.80;;;;;;;-2.30;100.00;99370.47;10542658;28;20174;-76
2021/04/09 03:25:36;;;;;;;2.07;1.60;;;;;;;-2.21;100.00;99372.13;10542402;28;20218;-75
2021/04/09 03:30:55;;;;;;;0.97;0.87;;;;;;;-2.43;100.00;99360.59;10540871;28;20209;-74
2021/04/09 03:36:14;;;;;;;18.10;3.17;;;;;;;-2.41;100.00;99353.00;10542542;28;20174;-75
2021/04/09 03:41:33;;;;;;;1.20;1.07;;;;;;;-2.48;100.00;99358.03;10542285;28;20174;-74
2021/04/09 03:46:52;;;;;;;2.30;1.63;;;;;;;-2.63;100.00;99354.91;10540863;28;20186;-74
2021/04/09 03:52:11;;;;;;;1.63;1.53;;;;;;;-2.64;100.00;99358.69;10541352;28;20209;-75
2021/04/09 03:57:29;;;;;;;1.97;1.10;;;;;;;-2.68;100.00;99352.34;10541831;28;20174;-75
2021/04/09 04:02:50;;;;;;;2.80;2.40;;;;;;;-2.69;100.00;99356.16;10524844;28;20170;-75
2021/04/09 04:08:09;;;;;;;2.80;1.23;;;;;;;-2.71;100.00;99353.78;10540969;28;20557;-75
2021/04/09 04:13:27;;;;;;;1.50;1.23;;;;;;;-2.74;100.00;99359.75;10540695;28;20166;-74
2021/04/09 04:18:47;;;;;;;7.70;2.97;;;;;;;-2.60;100.00;99355.09;10523764;28;20206;-75
2021/04/09 04:24:06;;;;;;;2.90;2.70;;;;;;;-2.70;100.00;99349.16;10525172;28;20178;-75
2021/04/09 04:29:25;;;;;;;2.40;1.73;;;;;;;-2.82;100.00;99338.13;10538520;28;20213;-74
2021/04/09 04:34:44;;;;;;;2.10;1.33;;;;;;;-2.84;100.00;99340.38;10540032;28;20182;-75
2021/04/09 04:40:04;;;;;;;0.90;0.80;;;;;;;-2.80;100.00;99336.75;10540166;28;20625;-75
2021/04/09 04:45:23;;;;;;;2.13;1.53;;;;;;;-2.79;100.00;99337.53;10538700;28;20174;-75
2021/04/09 04:50:42;;;;;;;1.70;1.60;;;;;;;-2.77;100.00;99329.97;10524048;28;20261;-75
2021/04/09 04:56:01;;;;;;;1.97;1.30;;;;;;;-2.60;100.00;99336.25;10524386;28;20260;-75
2021/04/09 05:01:20;;;;;;;2.07;1.87;;;;;;;-2.54;100.00;99326.13;10538512;28;20620;-75
2021/04/09 05:06:39;;;;;;;3.73;2.60;;;;;;;-2.37;100.00;99324.31;10539265;28;20197;-75
2021/04/09 05:11:58;;;;;;;0.83;0.57;;;;;;;-2.11;100.00;99325.25;10523407;28;20296;-75
2021/04/09 05:17:17;;;;;;;3.77;2.20;;;;;;;-1.64;100.00;99319.84;10537513;28;20205;-75
2021/04/09 05:22:36;;;;;;;1.00;0.90;;;;;;;-1.31;100.00;99329.91;10523885;28;20177;-75
2021/04/09 05:27:55;;;;;;;1.93;1.83;;;;;;;-1.30;100.00;99326.09;10537693;28;20226;-73
2021/04/09 05:33:14;;;;;;;1.80;1.70;;;;;;;-1.21;100.00;99320.72;10537734;28;20174;-74
2021/04/09 05:38:33;;;;;;;1.70;0.90;;;;;;;-1.04;100.00;99318.00;10523487;28;20532;-75
2021/04/09 05:43:52;;;;;;;2.07;1.73;;;;;;;-0.90;100.00;99307.84;10523414;28;20166;-74
2021/04/09 05:49:11;;;;;;;1.87;1.67;;;;;;;-0.79;100.00;99310.69;10546123;28;20214;-75
2021/04/09 05:54:30;;;;;;;2.03;1.90;;;;;;;-0.67;100.00;99315.44;10546565;28;20178;-74
2021/04/09 05:59:49;;;;;;;6.93;2.90;;;;;;;-0.59;100.00;99318.13;10529767;28;20170;-74
2021/04/09 06:05:09;;;;;;;2.73;2.00;;;;;;;-0.35;100.00;99304.88;10546033;28;20273;-75
2021/04/09 06:10:27;;;;;;;5.47;2.50;;;;;;;-0.21;100.00;99300.03;10529540;28;20206;-74
2021/04/09 06:15:46;;;;;;;2.07;1.40;;;;;;;0.07;100.00;99301.22;10544673;28;20240;-74
2021/04/09 06:21:06;;;;;;;2.53;1.40;;;;;;;0.39;100.00;99297.84;10530414;28;20174;-74
2021/04/09 06:26:25;;;;;;;2.30;2.10;;;;;;;0.77;100.00;99301.25;10529625;28;20218;-73
2021/04/09 06:31:44;;;;;;;5.23;2.00;;;;;;;0.89;100.00;99292.06;10543427;28;20624;-75
2021/04/09 06:37:03;;;;;;;6.90;2.50;;;;;;;1.01;100.00;99299.47;10529834;28;20174;-75
2021/04/09 06:42:22;;;;;;;2.17;2.07;;;;;;;1.40;100.00;99291.59;10544816;28;20252;-76
2021/04/09 06:47:41;;;;;;;5.90;2.40;;;;;;;1.79;100.00;99282.88;10527969;28;20170;-74
2021/04/09 06:53:00;;;;;;;3.43;3.07;;;;;;;2.16;100.00;99281.78;10528753;28;20624;-74
2021/04/09 06:58:23;;;;;;;4.03;2.23;;;;;;;2.49;100.00;99269.66;10543988;28;20178;-75
2021/04/09 07:03:42;;;;;;;8.43;3.53;;;;;;;3.16;100.00;99262.31;10527139;28;20201;-75
2021/04/09 07:09:02;;;;;;;8.33;3.87;;;;;;;3.68;97.02;99276.56;10528166;28;20197;-74
2021/04/09 07:14:51;;;;;;;2.40;2.20;;;;;;;4.18;92.53;99270.09;10526817;28;20173;-76
2021/04/09 07:20:22;;;;;;;2.90;2.10;;;;;;;4.79;91.06;99260.19;10543074;28;20191;-74
2021/04/09 07:25:45;;;;;;;2.03;1.37;;;;;;;5.41;87.45;99265.38;10527262;28;20305;-74
2021/04/09 07:31:07;;;;;;;4.13;2.20;;;;;;;6.10;83.67;99253.00;10540848;28;20202;-74
2021/04/09 07:36:26;;;;;;;4.53;2.53;;;;;;;6.58;78.45;99260.38;10542566;28;20174;-75
2021/04/09 07:41:45;;;;;;;6.87;3.80;;;;;;;7.18;65.95;99249.91;10542420;28;20174;-75
2021/04/09 07:47:12;;;;;;;3.33;3.13;;;;;;;7.50;66.92;99236.56;10541045;28;20174;-75
2021/04/09 07:52:51;;;;;;;4.03;3.50;;;;;;;7.88;62.73;99237.72;10525994;28;20229;-75
2021/04/09 07:58:14;;;;;;;5.23;2.90;;;;;;;8.32;59.79;99240.50;10541717;28;20186;-75
2021/04/09 08:03:39;;;;;;;5.27;3.40;;;;;;;8.60;61.01;99240.66;10540296;28;20558;-76
2021/04/09 08:08:58;;;;;;;2.40;2.20;;;;;;;9.17;60.38;99224.09;10525317;28;20242;-74
2021/04/09 08:14:24;;;;;;;4.67;4.27;;;;;;;9.59;56.33;99216.81;10539879;28;20624;-75
2021/04/09 08:19:43;;;;;;;3.47;2.50;;;;;;;10.11;57.20;99205.09;10541087;28;20241;-74
2021/04/09 08:25:04;;;;;;;3.83;3.53;;;;;;;10.50;53.66;99215.66;10540100;28;20661;-75
2021/04/09 08:30:26;;;;;;;5.20;4.37;;;;;;;11.14;52.12;99204.09;10538935;28;20727;-74
2021/04/09 08:35:45;;;;;;;2.87;2.60;;;;;;;11.37;49.51;99206.34;10540235;28;20169;-74
2021/04/09 08:41:05;;;;;;;4.07;3.67;;;;;;;10.77;47.83;99205.78;10545541;28;21735;-75
2021/04/09 08:46:24;;;;;;;4.90;3.00;;;;;;;11.51;49.95;99209.03;10539474;28;20182;-73
2021/04/09 08:51:44;;;;;;;5.17;3.10;;;;;;;11.51;46.95;99189.75;10539181;28;20202;-74
2021/04/09 08:57:04;;;;;;;4.90;2.80;;;;;;;11.56;43.36;99184.63;10539683;28;20676;-74
2021/04/09 09:02:28;;;;;;;5.10;2.40;;;;;;;11.41;45.08;99188.63;10538092;28;20166;-74
2021/04/09 09:07:51;;;;;;;6.43;4.07;;;;;;;12.28;43.04;99181.69;10523893;28;20185;-74
2021/04/09 09:13:23;;;;;;;5.13;3.00;;;;;;;12.08;43.34;99175.16;10539198;28;20170;-74
2021/04/09 09:18:53;;;;;;;6.20;3.87;;;;;;;12.96;42.30;99162.06;10539804;28;20278;-75
2021/04/09 09:24:23;;;;;;;5.03;2.77;;;;;;;12.06;43.62;99169.28;10547968;28;20293;-75
2021/04/09 09:29:46;;;;;;;6.63;3.33;;;;;;;12.09;43.17;99149.16;10531211;28;20201;-76
2021/04/09 09:35:06;;;;;;;4.73;3.30;;;;;;;12.87;41.15;99134.16;10547554;28;20174;-77
2021/04/09 09:40:41;;;;;;;5.13;2.70;;;;;;;12.93;38.16;99129.75;10547445;28;20219;-74
2021/04/09 09:46:00;;;;;;;6.60;3.90;;;;;;;14.07;38.00;99118.19;10545912;28;20170;-75
2021/04/09 09:51:29;;;;;;;3.87;3.57;;;;;;;15.11;34.72;99107.06;10531219;28;20201;-76
2021/04/09 09:56:49;;;;;;;3.63;2.27;;;;;;;14.09;35.41;99097.19;10530674;28;20174;-76
2021/04/09 10:02:16;;;;;;;6.03;2.50;;;;;;;13.36;36.17;99103.13;10545052;28;20170;-76
2021/04/09 10:07:36;;;;;;;4.53;2.30;;;;;;;12.89;37.93;99093.91;10531996;28;20174;-75
2021/04/09 10:13:12;;;;;;;6.13;3.00;;;;;;;13.24;37.12;99084.38;10546354;28;20174;-75
2021/04/09 10:18:33;;;;;;;3.00;2.57;;;;;;;13.46;35.78;99078.09;10544758;28;20605;-75
2021/04/09 10:24:07;;;;;;;10.10;2.20;;;;;;;13.59;36.14;99066.03;10530070;28;20174;-76
2021/04/09 10:29:35;;;;;;;4.37;2.37;;;;;;;14.18;35.25;99057.94;10528279;28;20656;-75
2021/04/09 10:34:54;;;;;;;3.40;2.07;;;;;;;13.77;35.84;99049.94;10545126;28;20170;-76
2021/04/09 10:40:13;;;;;;;9.40;3.20;;;;;;;14.22;33.92;99037.28;10544832;28;20958;-75
2021/04/09 10:45:32;;;;;;;3.20;2.40;;;;;;;14.15;33.39;99042.19;10543514;28;20253;-74
2021/04/09 10:50:51;;;;;;;2.27;1.87;;;;;;;14.61;31.92;99020.72;10528663;28;20198;-76
2021/04/09 10:56:10;;;;;;;3.73;2.60;;;;;;;14.85;32.61;99013.88;10544284;28;20628;-76
2021/04/09 11:01:30;;;;;;;2.00;1.60;;;;;;;14.22;31.82;99004.09;10542801;28;20178;-75
2021/04/09 11:06:50;;;;;;;11.00;3.00;;;;;;;14.59;33.08;99001.75;10543989;28;20190;-75
2021/04/09 11:12:22;;;;;;;2.53;2.03;;;;;;;13.76;32.90;98998.63;10527792;28;20213;-75
2021/04/09 11:17:56;;;;;;;8.20;2.60;;;;;;;14.29;33.22;98984.59;10526970;28;20577;-78
2021/04/09 11:23:16;;;;;;;2.70;2.50;;;;;;;14.73;33.40;98981.28;10543055;28;20177;-78
2021/04/09 11:28:36;;;;;;;2.27;2.07;;;;;;;14.50;34.06;98970.31;10542151;28;20312;-78
2021/04/09 11:34:09;;;;;;;6.10;2.33;;;;;;;13.85;34.30;98962.91;10526197;28;20649;-75
2021/04/09 11:39:28;;;;;;;3.47;1.67;;;;;;;13.79;35.02;98970.13;10527318;28;20175;-75
2021/04/09 11:44:49;;;;;;;1.93;1.73;;;;;;;14.83;35.49;98961.66;10540120;28;20252;-75
2021/04/09 11:50:09;;;;;;;4.10;2.37;;;;;;;15.07;33.99;98965.84;10526423;28;20209;-75
2021/04/09 11:55:39;;;;;;;5.60;1.67;;;;;;;14.71;36.29;98956.78;10541854;28;20170;-75
2021/04/09 12:01:03;;;;;;;3.13;2.80;;;;;;;14.96;34.57;98953.44;10540525;28;20178;-76
2021/04/09 12:06:23;;;;;;;6.30;2.10;;;;;;;14.90;34.20;98939.31;10525944;28;20676;-76
2021/04/09 12:11:42;;;;;;;4.40;2.00;;;;;;;14.75;35.39;98931.78;10525499;28;20684;-75
2021/04/09 12:17:03;;;;;;;3.40;2.90;;;;;;;14.42;34.75;98924.63;10539875;28;20174;-76
2021/04/09 12:22:22;;;;;;;2.53;2.00;;;;;;;14.63;34.70;98918.59;10540930;28;20215;-76
2021/04/09 12:27:44;;;;;;;15.50;3.83;;;;;;;15.40;33.49;98914.78;10524772;28;20214;-75
2021/04/09 12:33:02;;;;;;;6.20;2.03;;;;;;;15.13;33.26;98905.94;10539252;28;20177;-77
2021/04/09 12:38:21;;;;;;;9.43;3.00;;;;;;;15.56;33.09;98906.44;10540517;28;20624;-77
2021/04/09 12:43:40;;;;;;;5.00;2.83;;;;;;;15.72;32.53;98890.53;10524774;28;20178;-76
2021/04/09 12:49:00;;;;;;;4.13;2.70;;;;;;;15.73;33.15;98869.13;10537849;28;20619;-75
2021/04/09 12:54:19;;;;;;;3.93;2.30;;;;;;;15.64;33.11;98867.00;10539514;28;20190;-76
2021/04/09 12:59:39;;;;;;;4.53;2.83;;;;;;;16.02;31.66;98854.81;10523123;28;20203;-76
2021/04/09 13:04:58;;;;;;;3.53;2.40;;;;;;;16.13;31.91;98852.47;10539570;28;20281;-76
2021/04/09 13:10:18;;;;;;;9.53;2.67;;;;;;;15.58;32.26;98843.00;10539154;28;20245;-75
2021/04/09 13:15:37;;;;;;;2.90;2.57;;;;;;;15.71;32.16;98844.59;10522705;28;20174;-77
2021/04/09 13:20:57;;;;;;;2.90;2.17;;;;;;;15.63;31.94;98832.16;10539090;28;20158;-77
2021/04/09 13:26:18;;;;;;;3.20;1.93;;;;;;;15.46;32.21;98827.13;10538708;28;20301;-77
2021/04/09 13:31:37;;;;;;;3.47;2.63;;;;;;;16.96;31.17;98818.50;10537109;28;20214;-77
2021/04/09 13:36:56;;;;;;;5.43;2.30;;;;;;;16.32;30.92;98817.44;10538836;28;20539;-76
2021/04/09 13:42:15;;;;;;;3.73;2.30;;;;;;;15.44;32.13;98818.44;10538750;28;20178;-76
2021/04/09 13:47:34;;;;;;;3.60;1.63;;;;;;;15.79;30.80;98807.13;10522213;28;20636;-78
2021/04/09 13:52:53;;;;;;;5.43;2.57;;;;;;;16.41;30.51;98804.47;10515257;28;20186;-77
2021/04/09 13:58:13;;;;;;;2.70;2.47;;;;;;;16.76;30.93;98797.75;10538418;28;20174;-78
2021/04/09 14:03:32;;;;;;;3.80;1.77;;;;;;;16.69;29.06;98794.44;10521924;28;20202;-77
2021/04/09 14:08:51;;;;;;;5.37;2.30;;;;;;;16.90;30.03;98784.19;10544513;28;20205;-77
2021/04/09 14:14:10;;;;;;;4.13;3.23;;;;;;;17.34;27.97;98777.50;10545775;28;20182;-77
2021/04/09 14:19:29;;;;;;;2.43;1.97;;;;;;;17.29;28.49;98780.09;10530452;28;20221;-76
2021/04/09 14:24:48;;;;;;;2.40;2.20;;;;;;;16.98;27.98;98776.38;10545397;28;20209;-76
2021/04/09 14:30:12;;;;;;;1.80;1.70;;;;;;;17.44;27.91;98768.03;10528165;28;20218;-76
2021/04/09 14:35:32;;;;;;;3.50;2.37;;;;;;;17.34;27.43;98782.28;10545232;28;20178;-77
2021/04/09 14:40:51;;;;;;;2.43;1.97;;;;;;;17.53;26.77;98773.63;10544925;28;20629;-77
2021/04/09 14:46:10;;;;;;;2.50;2.30;;;;;;;16.99;27.19;98778.72;10543483;28;20174;-76
2021/04/09 14:51:29;;;;;;;4.43;1.73;;;;;;;17.04;26.87;98767.00;10544110;28;20202;-78
2021/04/09 14:56:48;;;;;;;3.37;2.00;;;;;;;17.58;26.89;98781.41;10544328;28;20209;-77
2021/04/09 15:02:07;;;;;;;2.73;2.40;;;;;;;16.69;27.13;98770.22;10542583;28;20233;-77
2021/04/09 15:07:26;;;;;;;6.27;3.30;;;;;;;16.40;28.77;98763.25;10527910;28;20182;-77
2021/04/09 15:12:45;;;;;;;3.00;2.07;;;;;;;16.10;29.09;98756.25;10543250;28;20229;-77
2021/04/09 15:18:04;;;;;;;34.67;3.53;;;;;;;16.31;28.00;98772.25;10526091;28;20169;-78
2021/04/09 15:23:24;;;;;;;4.30;2.03;;;;;;;16.56;27.81;98768.69;10527770;28;20620;-77
2021/04/09 15:28:44;;;;;;;3.87;1.73;;;;;;;16.62;27.75;98766.91;10526677;28;20225;-78
2021/04/09 15:34:02;;;;;;;3.03;1.87;;;;;;;16.45;27.42;98773.81;10541509;28;20187;-77
2021/04/09 15:39:21;;;;;;;7.23;1.70;;;;;;;16.82;27.88;98766.19;10527299;28;20582;-76
2021/04/09 15:44:40;;;;;;;2.17;1.20;;;;;;;16.39;28.77;98772.81;10541229;28;20201;-77
2021/04/09 15:49:59;;;;;;;2.97;1.83;;;;;;;16.20;29.04;98765.47;10526440;28;20679;-76
2021/04/09 15:55:18;;;;;;;2.70;2.23;;;;;;;15.93;28.51;98787.28;10541823;28;20178;-76
2021/04/09 16:00:37;;;;;;;2.83;2.50;;;;;;;15.50;29.37;98784.22;10540155;28;20190;-77
2021/04/09 16:05:57;;;;;;;3.93;2.70;;;;;;;15.18;30.12;98792.56;10541517;28;20627;-77
2021/04/09 16:11:17;;;;;;;1.93;1.70;;;;;;;15.10;31.01;98795.22;10525450;28;20209;-76
2021/04/09 16:16:36;;;;;;;2.00;1.60;;;;;;;14.97;31.34;98786.84;10539728;28;20178;-76
2021/04/09 16:21:55;;;;;;;5.60;3.27;;;;;;;14.90;32.15;98780.69;10518025;28;20680;-77
2021/04/09 16:27:14;;;;;;;7.40;4.83;;;;;;;14.85;31.51;98781.22;10539971;28;20225;-76
2021/04/09 16:32:33;;;;;;;5.33;1.70;;;;;;;14.77;32.39;98771.53;10522935;28;20209;-77
2021/04/09 16:38:01;;;;;;;2.07;1.97;;;;;;;14.64;31.96;98774.22;10540228;28;20212;-76
2021/04/09 16:43:20;;;;;;;2.10;1.90;;;;;;;14.65;32.17;98772.22;10524597;28;20174;-76
2021/04/09 16:48:39;;;;;;;2.83;1.83;;;;;;;14.54;32.58;98772.50;10538523;28;20202;-76
2021/04/09 16:53:58;;;;;;;2.83;2.17;;;;;;;14.35;33.41;98780.88;10524205;28;20182;-76
2021/04/09 16:59:17;;;;;;;2.17;2.00;;;;;;;14.32;34.01;98780.97;10539002;28;20201;-77
2021/04/09 17:04:36;;;;;;;3.70;2.30;;;;;;;14.53;33.55;98776.47;10524341;28;20169;-76
2021/04/09 17:09:55;;;;;;;1.70;1.50;;;;;;;14.41;34.20;98779.16;10523886;28;20663;-76
2021/04/09 17:15:16;;;;;;;1.50;1.30;;;;;;;14.34;34.88;98775.78;10538053;28;20519;-77
2021/04/09 17:20:35;;;;;;;2.37;1.80;;;;;;;14.22;34.94;98776.44;10539258;28;20181;-76
2021/04/09 17:25:54;;;;;;;6.77;3.57;;;;;;;14.11;34.50;98773.94;10523191;28;20225;-77
2021/04/09 17:31:13;;;;;;;5.27;2.33;;;;;;;13.93;35.38;98767.97;10537141;28;20204;-77
2021/04/09 17:36:32;;;;;;;3.73;3.23;;;;;;;13.89;35.24;98769.25;10539067;28;20529;-77
2021/04/09 17:41:51;;;;;;;3.10;2.00;;;;;;;13.76;35.39;98774.66;10542157;28;20174;-76
2021/04/09 17:47:11;;;;;;;2.87;2.67;;;;;;;13.51;36.86;98778.38;10530314;28;20257;-76
2021/04/09 17:52:30;;;;;;;7.23;2.77;;;;;;;13.21;38.74;98784.88;10545832;28;20209;-77
2021/04/09 17:57:49;;;;;;;4.63;2.77;;;;;;;12.95;40.96;98782.22;10546634;28;20174;-77
2021/04/09 18:03:09;;;;;;;5.93;2.10;;;;;;;12.73;42.34;98787.31;10544518;28;20197;-76
2021/04/09 18:08:28;;;;;;;2.20;1.90;;;;;;;12.45;43.31;98781.47;10546016;28;20284;-76
2021/04/09 18:13:48;;;;;;;2.67;2.47;;;;;;;12.22;43.33;98784.22;10546002;28;20174;-77
2021/04/09 18:19:08;;;;;;;4.60;2.80;;;;;;;12.26;42.06;98779.44;10529190;28;20632;-77
2021/04/09 18:24:27;;;;;;;3.83;2.23;;;;;;;12.36;41.75;98770.19;10530161;28;20584;-77
2021/04/09 18:29:46;;;;;;;2.03;1.90;;;;;;;12.14;43.17;98768.97;10543848;28;20288;-77
2021/04/09 18:35:06;;;;;;;16.73;8.70;;;;;;;11.86;45.04;98778.84;10529698;28;20622;-76
2021/04/09 18:40:26;;;;;;;3.93;2.80;;;;;;;11.55;46.37;98775.31;10529713;28;20186;-77
2021/04/09 18:45:49;;;;;;;9.50;2.77;;;;;;;11.44;45.05;98776.59;10543610;28;20174;-77
2021/04/09 18:51:09;;;;;;;7.13;2.93;;;;;;;11.27;46.15;98778.38;10543627;28;20582;-76
2021/04/09 18:56:29;;;;;;;4.87;2.70;;;;;;;11.16;47.21;98774.97;10529138;28;20181;-76
2021/04/09 19:01:47;;;;;;;2.50;2.00;;;;;;;11.13;46.20;98777.75;10542738;28;20197;-76
2021/04/09 19:07:08;;;;;;;6.70;1.90;;;;;;;11.35;46.22;98779.84;10528816;28;20208;-76
2021/04/09 19:12:27;;;;;;;2.60;2.10;;;;;;;11.52;45.72;98784.38;10543150;28;20209;-76
2021/04/09 19:17:47;;;;;;;3.63;2.20;;;;;;;11.54;45.41;98776.50;10541762;28;20178;-76
2021/04/09 19:23:06;;;;;;;4.00;1.97;;;;;;;11.64;45.45;98780.31;10527911;28;20182;-77
2021/04/09 19:28:26;;;;;;;3.77;2.67;;;;;;;11.55;46.23;98778.06;10541831;28;20293;-76
2021/04/09 19:33:45;;;;;;;8.93;2.90;;;;;;;11.40;46.23;98784.13;10541494;28;20174;-76
2021/04/09 19:39:04;;;;;;;4.77;1.93;;;;;;;11.29;46.93;98767.72;10542666;28;20185;-76
2021/04/09 19:44:24;;;;;;;1.90;1.53;;;;;;;11.15;48.13;98773.41;10541191;28;20624;-76
2021/04/09 19:49:43;;;;;;;3.87;3.17;;;;;;;10.73;49.91;98775.03;10526836;28;20202;-75
2021/04/09 19:55:04;;;;;;;4.20;2.60;;;;;;;10.51;52.79;98777.16;10542189;28;20636;-75
2021/04/09 20:00:23;;;;;;;2.10;1.90;;;;;;;10.22;52.80;98766.03;10540582;28;20656;-76
2021/04/09 20:05:46;;;;;;;3.53;2.70;;;;;;;10.34;54.32;98769.84;10540918;28;20178;-78
2021/04/09 20:11:05;;;;;;;4.27;3.07;;;;;;;10.10;56.09;98772.00;10541065;28;20201;-76
2021/04/09 20:16:24;;;;;;;3.57;2.60;;;;;;;10.12;56.29;98777.88;10539822;28;20174;-78
2021/04/09 20:21:43;;;;;;;4.43;3.10;;;;;;;9.98;56.04;98767.00;10525753;28;20629;-76
2021/04/09 20:27:04;;;;;;;5.13;2.90;;;;;;;10.01;56.19;98771.69;10525055;28;20213;-77
2021/04/09 20:32:23;;;;;;;2.80;1.40;;;;;;;10.00;57.06;98770.91;10538876;28;20213;-77
2021/04/09 20:37:42;;;;;;;2.33;2.23;;;;;;;10.03;55.64;98772.06;10540482;28;20181;-77
2021/04/09 20:43:00;;;;;;;3.03;2.70;;;;;;;10.16;55.50;98778.66;10540043;28;20174;-76
2021/04/09 20:48:19;;;;;;;4.27;2.80;;;;;;;10.19;55.88;98766.81;10538608;28;20261;-76
2021/04/09 20:53:38;;;;;;;7.33;3.83;;;;;;;10.18;55.90;98755.06;10539963;28;20170;-77
2021/04/09 20:58:57;;;;;;;2.67;1.67;;;;;;;9.99;57.09;98746.56;10539637;28;20190;-77
2021/04/09 21:04:16;;;;;;;3.10;2.80;;;;;;;10.11;56.94;98754.31;10538341;28;20619;-76
2021/04/09 21:09:35;;;;;;;2.43;2.17;;;;;;;9.99;57.58;98743.81;10539473;28;20213;-77
2021/04/09 21:14:54;;;;;;;3.07;2.07;;;;;;;10.03;56.63;98739.88;10522535;28;20178;-77
2021/04/09 21:20:14;;;;;;;1.87;1.77;;;;;;;10.13;56.78;98741.75;10539477;28;20177;-77
2021/04/09 21:25:33;;;;;;;5.23;2.47;;;;;;;10.12;57.49;98742.94;10538858;28;20221;-77
2021/04/09 21:30:54;;;;;;;2.23;1.97;;;;;;;10.17;57.62;98736.25;10514253;28;20284;-77
2021/04/09 21:36:13;;;;;;;3.90;2.50;;;;;;;9.87;60.08;98736.00;10523659;28;20174;-76
2021/04/09 21:41:32;;;;;;;5.47;2.93;;;;;;;9.65;60.50;98735.34;10538848;28;20170;-76
2021/04/09 21:46:51;;;;;;;4.00;3.60;;;;;;;9.44;61.33;98731.97;10537521;28;20636;-77
2021/04/09 21:52:11;;;;;;;7.80;2.67;;;;;;;9.56;61.29;98726.00;10538037;28;20284;-76
2021/04/09 21:57:31;;;;;;;3.73;2.60;;;;;;;9.36;62.31;98718.66;10538477;28;20616;-77
2021/04/09 22:02:50;;;;;;;12.50;4.70;;;;;;;9.15;62.88;98718.78;10537126;28;20178;-77
2021/04/09 22:08:09;;;;;;;2.10;2.00;;;;;;;9.26;60.96;98705.78;10523149;28;20166;-77
2021/04/09 22:13:27;;;;;;;4.50;2.57;;;;;;;9.22;62.49;98708.53;10538189;28;20538;-76
2021/04/09 22:18:47;;;;;;;4.37;2.13;;;;;;;9.27;62.18;98707.34;10536772;28;20182;-76
2021/04/09 22:24:12;;;;;;;4.93;2.83;;;;;;;9.31;61.41;98722.59;10537662;28;20170;-76
2021/04/09 22:29:31;;;;;;;2.53;2.33;;;;;;;9.40;60.64;98725.69;10542119;28;20205;-76
2021/04/09 22:34:49;;;;;;;1.60;1.50;;;;;;;9.29;61.25;98724.19;10530087;28;20170;-76
2021/04/09 22:40:10;;;;;;;3.23;2.40;;;;;;;9.16;62.83;98714.84;10544691;28;20534;-77
2021/04/09 22:45:29;;;;;;;5.43;3.07;;;;;;;9.26;61.64;98716.75;10543785;28;20537;-77
2021/04/09 22:50:48;;;;;;;2.13;1.80;;;;;;;9.27;60.28;98699.91;10544056;28;20201;-76
2021/04/09 22:56:08;;;;;;;2.80;1.60;;;;;;;9.61;58.79;98689.91;10529360;28;20170;-76
2021/04/09 23:01:27;;;;;;;1.90;1.57;;;;;;;9.57;58.64;98700.88;10543039;28;20221;-76
2021/04/09 23:06:46;;;;;;;4.40;2.43;;;;;;;9.37;60.59;98688.06;10544111;28;20178;-76
2021/04/09 23:12:05;;;;;;;2.10;1.90;;;;;;;9.62;59.42;98691.44;10528047;28;20202;-76
2021/04/09 23:17:25;;;;;;;2.63;2.40;;;;;;;9.69;58.56;98686.69;10542421;28;20170;-77
2021/04/09 23:22:44;;;;;;;4.70;2.17;;;;;;;9.63;58.48;98688.31;10528232;28;20178;-77
2021/04/09 23:28:03;;;;;;;2.37;2.17;;;;;;;9.65;57.91;98672.19;10542529;28;20226;-77
2021/04/09 23:33:23;;;;;;;2.93;2.67;;;;;;;9.68;58.80;98674.16;10541889;28;20186;-77
2021/04/09 23:38:42;;;;;;;2.40;1.53;;;;;;;9.69;58.34;98672.19;10542721;28;20174;-77
2021/04/09 23:44:01;;;;;;;1.40;1.30;;;;;;;9.72;57.90;98671.38;10542647;28;20178;-77
2021/04/09 23:49:20;;;;;;;2.43;2.23;;;;;;;9.84;57.78;98663.44;10541648;28;20210;-77
2021/04/09 23:54:39;;;;;;;1.43;1.33;;;;;;;9.81;57.80;98666.22;10526744;28;20217;-77
2021/04/09 23:59:58;;;;;;;1.37;1.27;;;;;;;9.79;58.45;98655.63;10540015;28;20229;-77
